sensor_id;sensor_type;location;lat;lon;timestamp;P1;durP1;ratioP1;P2;durP2;ratioP2
3865;SDS011;1948;53.250;10.412;2023-06-22T00:00:26;8.10;;;7.30;;
3865;SDS011;1948;53.250;10.412;2023-06-22T00:02:53;8.37;;;7.30;;
3865;SDS011;1948;53.250;10.412;2023-06-22T00:05:23;7.63;;;7.00;;
3865;SDS011;1948;53.250;10.412;2023-06-22T00:07:50;7.37;;;6.60;;
3865;SDS011;1948;53.250;10.412;2023-06-22T00:10:17;11.90;;;8.07;;
3865;SDS011;1948;53.250;10.412;2023-06-22T00:12:44;7.47;;;6.90;;
3865;SDS011;1948;53.250;10.412;2023-06-22T00:15:13;9.07;;;8.27;;
3865;SDS011;1948;53.250;10.412;2023-06-22T00:17:42;9.03;;;7.83;;
3865;SDS011;1948;53.250;10.412;2023-06-22T00:20:09;8.93;;;6.80;;
3865;SDS011;1948;53.250;10.412;2023-06-22T00:22:37;7.60;;;6.90;;
3865;SDS011;1948;53.250;10.412;2023-06-22T00:25:06;9.23;;;8.27;;
3865;SDS011;1948;53.250;10.412;2023-06-22T00:27:34;13.30;;;8.10;;
3865;SDS011;1948;53.250;10.412;2023-06-22T00:30:02;8.10;;;7.33;;
3865;SDS011;1948;53.250;10.412;2023-06-22T00:32:39;8.67;;;7.97;;
3865;SDS011;1948;53.250;10.412;2023-06-22T00:35:06;8.17;;;7.67;;
3865;SDS011;1948;53.250;10.412;2023-06-22T00:37:36;7.73;;;7.13;;
3865;SDS011;1948;53.250;10.412;2023-06-22T00:40:04;8.20;;;7.20;;
3865;SDS011;1948;53.250;10.412;2023-06-22T00:42:38;8.03;;;7.37;;
3865;SDS011;1948;53.250;10.412;2023-06-22T00:45:05;8.73;;;7.90;;
3865;SDS011;1948;53.250;10.412;2023-06-22T00:47:36;8.27;;;7.57;;
3865;SDS011;1948;53.250;10.412;2023-06-22T00:50:06;8.10;;;7.20;;
3865;SDS011;1948;53.250;10.412;2023-06-22T00:52:36;10.70;;;7.50;;
3865;SDS011;1948;53.250;10.412;2023-06-22T00:55:03;8.50;;;7.00;;
3865;SDS011;1948;53.250;10.412;2023-06-22T00:57:33;8.27;;;6.80;;
3865;SDS011;1948;53.250;10.412;2023-06-22T01:00:03;7.73;;;7.23;;
3865;SDS011;1948;53.250;10.412;2023-06-22T01:02:35;7.60;;;6.90;;
3865;SDS011;1948;53.250;10.412;2023-06-22T01:05:05;7.30;;;6.80;;
3865;SDS011;1948;53.250;10.412;2023-06-22T01:07:37;14.80;;;8.43;;
3865;SDS011;1948;53.250;10.412;2023-06-22T01:10:53;8.33;;;7.17;;
3865;SDS011;1948;53.250;10.412;2023-06-22T01:16:23;14.27;;;8.10;;
3865;SDS011;1948;53.250;10.412;2023-06-22T01:18:57;11.53;;;7.40;;
3865;SDS011;1948;53.250;10.412;2023-06-22T01:21:41;16.83;;;7.53;;
3865;SDS011;1948;53.250;10.412;2023-06-22T01:24:18;8.23;;;7.47;;
3865;SDS011;1948;53.250;10.412;2023-06-22T01:29:41;8.97;;;8.27;;
3865;SDS011;1948;53.250;10.412;2023-06-22T01:32:11;23.50;;;7.87;;
3865;SDS011;1948;53.250;10.412;2023-06-22T01:34:48;17.23;;;8.80;;
3865;SDS011;1948;53.250;10.412;2023-06-22T01:37:16;14.40;;;10.87;;
3865;SDS011;1948;53.250;10.412;2023-06-22T01:39:44;14.23;;;10.10;;
3865;SDS011;1948;53.250;10.412;2023-06-22T01:42:14;24.83;;;12.53;;
3865;SDS011;1948;53.250;10.412;2023-06-22T01:44:44;17.17;;;13.23;;
3865;SDS011;1948;53.250;10.412;2023-06-22T01:47:12;11.23;;;10.13;;
3865;SDS011;1948;53.250;10.412;2023-06-22T01:49:40;12.73;;;9.13;;
3865;SDS011;1948;53.250;10.412;2023-06-22T01:52:10;8.80;;;7.97;;
3865;SDS011;1948;53.250;10.412;2023-06-22T01:54:40;14.40;;;9.03;;
3865;SDS011;1948;53.250;10.412;2023-06-22T01:57:10;9.50;;;8.60;;
3865;SDS011;1948;53.250;10.412;2023-06-22T02:02:19;11.93;;;8.70;;
3865;SDS011;1948;53.250;10.412;2023-06-22T02:07:47;10.80;;;7.90;;
3865;SDS011;1948;53.250;10.412;2023-06-22T02:10:33;17.13;;;8.67;;
3865;SDS011;1948;53.250;10.412;2023-06-22T02:13:03;9.40;;;8.30;;
3865;SDS011;1948;53.250;10.412;2023-06-22T02:15:33;9.30;;;7.90;;
3865;SDS011;1948;53.250;10.412;2023-06-22T02:18:00;11.80;;;8.53;;
3865;SDS011;1948;53.250;10.412;2023-06-22T02:20:27;8.37;;;6.87;;
3865;SDS011;1948;53.250;10.412;2023-06-22T02:22:55;12.37;;;7.50;;
3865;SDS011;1948;53.250;10.412;2023-06-22T02:25:22;6.50;;;5.93;;
3865;SDS011;1948;53.250;10.412;2023-06-22T02:27:49;11.83;;;8.13;;
3865;SDS011;1948;53.250;10.412;2023-06-22T02:30:16;8.93;;;7.37;;
3865;SDS011;1948;53.250;10.412;2023-06-22T02:32:43;8.17;;;7.37;;
3865;SDS011;1948;53.250;10.412;2023-06-22T02:35:12;7.93;;;7.23;;
3865;SDS011;1948;53.250;10.412;2023-06-22T02:37:42;8.10;;;6.90;;
3865;SDS011;1948;53.250;10.412;2023-06-22T02:40:13;10.00;;;8.10;;
3865;SDS011;1948;53.250;10.412;2023-06-22T02:42:40;11.57;;;7.50;;
3865;SDS011;1948;53.250;10.412;2023-06-22T02:45:10;11.03;;;7.73;;
3865;SDS011;1948;53.250;10.412;2023-06-22T02:47:37;9.73;;;7.53;;
3865;SDS011;1948;53.250;10.412;2023-06-22T02:50:04;27.47;;;9.07;;
3865;SDS011;1948;53.250;10.412;2023-06-22T02:52:31;19.57;;;7.80;;
3865;SDS011;1948;53.250;10.412;2023-06-22T02:54:58;24.67;;;9.20;;
3865;SDS011;1948;53.250;10.412;2023-06-22T02:57:25;22.90;;;9.40;;
3865;SDS011;1948;53.250;10.412;2023-06-22T02:59:52;13.47;;;7.27;;
3865;SDS011;1948;53.250;10.412;2023-06-22T03:02:21;7.33;;;6.63;;
3865;SDS011;1948;53.250;10.412;2023-06-22T03:04:48;7.60;;;7.00;;
3865;SDS011;1948;53.250;10.412;2023-06-22T03:07:15;9.67;;;7.97;;
3865;SDS011;1948;53.250;10.412;2023-06-22T03:09:44;12.73;;;7.50;;
3865;SDS011;1948;53.250;10.412;2023-06-22T03:12:11;13.00;;;7.83;;
3865;SDS011;1948;53.250;10.412;2023-06-22T03:14:38;7.80;;;7.20;;
3865;SDS011;1948;53.250;10.412;2023-06-22T03:17:05;7.50;;;6.90;;
3865;SDS011;1948;53.250;10.412;2023-06-22T03:19:32;12.90;;;7.63;;
3865;SDS011;1948;53.250;10.412;2023-06-22T03:21:59;8.07;;;7.50;;
3865;SDS011;1948;53.250;10.412;2023-06-22T03:24:27;13.60;;;7.47;;
3865;SDS011;1948;53.250;10.412;2023-06-22T03:26:57;8.47;;;7.77;;
3865;SDS011;1948;53.250;10.412;2023-06-22T03:29:31;8.40;;;7.70;;
3865;SDS011;1948;53.250;10.412;2023-06-22T03:31:57;9.93;;;8.00;;
3865;SDS011;1948;53.250;10.412;2023-06-22T03:34:27;11.60;;;7.87;;
3865;SDS011;1948;53.250;10.412;2023-06-22T03:36:54;8.60;;;7.80;;
3865;SDS011;1948;53.250;10.412;2023-06-22T03:39:24;15.03;;;8.07;;
3865;SDS011;1948;53.250;10.412;2023-06-22T03:41:50;7.93;;;7.33;;
3865;SDS011;1948;53.250;10.412;2023-06-22T03:44:17;7.87;;;7.20;;
3865;SDS011;1948;53.250;10.412;2023-06-22T03:46:45;9.33;;;8.40;;
3865;SDS011;1948;53.250;10.412;2023-06-22T03:49:12;13.97;;;8.67;;
3865;SDS011;1948;53.250;10.412;2023-06-22T03:51:39;9.73;;;8.70;;
3865;SDS011;1948;53.250;10.412;2023-06-22T03:54:06;11.03;;;8.60;;
3865;SDS011;1948;53.250;10.412;2023-06-22T03:56:33;9.10;;;8.40;;
3865;SDS011;1948;53.250;10.412;2023-06-22T03:59:00;10.40;;;8.50;;
3865;SDS011;1948;53.250;10.412;2023-06-22T04:01:29;8.63;;;7.93;;
3865;SDS011;1948;53.250;10.412;2023-06-22T04:03:58;9.47;;;8.63;;
3865;SDS011;1948;53.250;10.412;2023-06-22T04:06:27;12.53;;;8.53;;
3865;SDS011;1948;53.250;10.412;2023-06-22T04:08:57;13.90;;;9.03;;
3865;SDS011;1948;53.250;10.412;2023-06-22T04:11:27;8.93;;;8.13;;
3865;SDS011;1948;53.250;10.412;2023-06-22T04:13:54;12.30;;;7.50;;
3865;SDS011;1948;53.250;10.412;2023-06-22T04:16:21;14.20;;;10.13;;
3865;SDS011;1948;53.250;10.412;2023-06-22T04:18:49;10.37;;;9.23;;
3865;SDS011;1948;53.250;10.412;2023-06-22T04:21:16;15.70;;;9.50;;
3865;SDS011;1948;53.250;10.412;2023-06-22T04:23:46;15.47;;;9.03;;
3865;SDS011;1948;53.250;10.412;2023-06-22T04:26:17;11.40;;;9.40;;
3865;SDS011;1948;53.250;10.412;2023-06-22T04:28:49;18.07;;;10.40;;
3865;SDS011;1948;53.250;10.412;2023-06-22T04:31:18;14.63;;;9.27;;
3865;SDS011;1948;53.250;10.412;2023-06-22T04:33:45;12.13;;;9.70;;
3865;SDS011;1948;53.250;10.412;2023-06-22T04:36:12;9.83;;;9.03;;
3865;SDS011;1948;53.250;10.412;2023-06-22T04:38:44;15.00;;;8.90;;
3865;SDS011;1948;53.250;10.412;2023-06-22T04:41:13;9.93;;;8.00;;
3865;SDS011;1948;53.250;10.412;2023-06-22T04:43:50;7.97;;;7.43;;
3865;SDS011;1948;53.250;10.412;2023-06-22T04:46:20;7.20;;;6.60;;
3865;SDS011;1948;53.250;10.412;2023-06-22T04:48:47;7.30;;;6.63;;
3865;SDS011;1948;53.250;10.412;2023-06-22T04:51:14;8.27;;;6.30;;
3865;SDS011;1948;53.250;10.412;2023-06-22T04:53:41;8.20;;;7.50;;
3865;SDS011;1948;53.250;10.412;2023-06-22T04:56:08;7.63;;;7.03;;
3865;SDS011;1948;53.250;10.412;2023-06-22T04:58:35;16.00;;;7.33;;
3865;SDS011;1948;53.250;10.412;2023-06-22T05:01:02;11.13;;;8.00;;
3865;SDS011;1948;53.250;10.412;2023-06-22T05:03:29;7.67;;;6.67;;
3865;SDS011;1948;53.250;10.412;2023-06-22T05:05:57;9.50;;;7.60;;
3865;SDS011;1948;53.250;10.412;2023-06-22T05:08:24;5.70;;;5.27;;
3865;SDS011;1948;53.250;10.412;2023-06-22T05:10:53;13.40;;;6.63;;
3865;SDS011;1948;53.250;10.412;2023-06-22T05:13:31;24.77;;;16.60;;
3865;SDS011;1948;53.250;10.412;2023-06-22T05:16:00;6.40;;;5.90;;
3865;SDS011;1948;53.250;10.412;2023-06-22T05:18:32;6.63;;;5.90;;
3865;SDS011;1948;53.250;10.412;2023-06-22T05:20:59;6.00;;;5.70;;
3865;SDS011;1948;53.250;10.412;2023-06-22T05:23:26;10.83;;;5.93;;
3865;SDS011;1948;53.250;10.412;2023-06-22T05:25:56;7.60;;;6.90;;
3865;SDS011;1948;53.250;10.412;2023-06-22T05:28:26;7.10;;;6.50;;
3865;SDS011;1948;53.250;10.412;2023-06-22T05:30:55;11.17;;;5.60;;
3865;SDS011;1948;53.250;10.412;2023-06-22T05:33:25;5.07;;;4.77;;
3865;SDS011;1948;53.250;10.412;2023-06-22T05:35:54;5.93;;;5.40;;
3865;SDS011;1948;53.250;10.412;2023-06-22T05:38:21;5.10;;;4.80;;
3865;SDS011;1948;53.250;10.412;2023-06-22T05:40:48;5.87;;;5.13;;
3865;SDS011;1948;53.250;10.412;2023-06-22T05:43:18;6.00;;;5.60;;
3865;SDS011;1948;53.250;10.412;2023-06-22T05:45:45;16.57;;;6.47;;
3865;SDS011;1948;53.250;10.412;2023-06-22T05:48:12;6.27;;;5.87;;
3865;SDS011;1948;53.250;10.412;2023-06-22T05:50:39;18.20;;;6.53;;
3865;SDS011;1948;53.250;10.412;2023-06-22T05:53:06;14.90;;;5.57;;
3865;SDS011;1948;53.250;10.412;2023-06-22T05:55:33;10.37;;;5.63;;
3865;SDS011;1948;53.250;10.412;2023-06-22T05:58:05;5.70;;;5.30;;
3865;SDS011;1948;53.250;10.412;2023-06-22T06:00:32;5.23;;;5.03;;
3865;SDS011;1948;53.250;10.412;2023-06-22T06:03:02;5.73;;;5.23;;
3865;SDS011;1948;53.250;10.412;2023-06-22T06:05:30;6.03;;;5.53;;
3865;SDS011;1948;53.250;10.412;2023-06-22T06:08:01;5.47;;;4.97;;
3865;SDS011;1948;53.250;10.412;2023-06-22T06:10:32;7.23;;;4.73;;
3865;SDS011;1948;53.250;10.412;2023-06-22T06:13:00;4.80;;;4.40;;
3865;SDS011;1948;53.250;10.412;2023-06-22T06:15:34;5.10;;;4.70;;
3865;SDS011;1948;53.250;10.412;2023-06-22T06:18:01;5.50;;;5.00;;
3865;SDS011;1948;53.250;10.412;2023-06-22T06:20:32;6.30;;;5.07;;
3865;SDS011;1948;53.250;10.412;2023-06-22T06:23:01;8.63;;;6.87;;
3865;SDS011;1948;53.250;10.412;2023-06-22T06:25:29;7.93;;;6.63;;
3865;SDS011;1948;53.250;10.412;2023-06-22T06:28:01;6.57;;;5.13;;
3865;SDS011;1948;53.250;10.412;2023-06-22T06:30:33;5.33;;;5.00;;
3865;SDS011;1948;53.250;10.412;2023-06-22T06:33:03;24.40;;;8.53;;
3865;SDS011;1948;53.250;10.412;2023-06-22T06:35:35;5.80;;;5.20;;
3865;SDS011;1948;53.250;10.412;2023-06-22T06:38:03;6.80;;;4.83;;
3865;SDS011;1948;53.250;10.412;2023-06-22T06:40:31;6.30;;;4.37;;
3865;SDS011;1948;53.250;10.412;2023-06-22T06:42:58;11.67;;;7.23;;
3865;SDS011;1948;53.250;10.412;2023-06-22T06:45:25;10.23;;;6.77;;
3865;SDS011;1948;53.250;10.412;2023-06-22T06:47:54;10.83;;;6.80;;
3865;SDS011;1948;53.250;10.412;2023-06-22T06:50:22;9.53;;;5.50;;
3865;SDS011;1948;53.250;10.412;2023-06-22T06:52:52;4.77;;;4.30;;
3865;SDS011;1948;53.250;10.412;2023-06-22T06:55:27;10.40;;;5.83;;
3865;SDS011;1948;53.250;10.412;2023-06-22T06:57:59;5.37;;;5.00;;
3865;SDS011;1948;53.250;10.412;2023-06-22T07:00:29;4.90;;;4.80;;
3865;SDS011;1948;53.250;10.412;2023-06-22T07:02:56;5.63;;;5.43;;
3865;SDS011;1948;53.250;10.412;2023-06-22T07:05:23;5.47;;;4.97;;
3865;SDS011;1948;53.250;10.412;2023-06-22T07:07:52;8.57;;;5.23;;
3865;SDS011;1948;53.250;10.412;2023-06-22T07:10:22;5.60;;;5.40;;
3865;SDS011;1948;53.250;10.412;2023-06-22T07:12:53;6.57;;;5.00;;
3865;SDS011;1948;53.250;10.412;2023-06-22T07:15:23;5.50;;;5.00;;
3865;SDS011;1948;53.250;10.412;2023-06-22T07:17:51;4.80;;;4.40;;
3865;SDS011;1948;53.250;10.412;2023-06-22T07:20:18;5.27;;;4.30;;
3865;SDS011;1948;53.250;10.412;2023-06-22T07:22:46;5.57;;;5.20;;
3865;SDS011;1948;53.250;10.412;2023-06-22T07:25:13;4.90;;;4.60;;
3865;SDS011;1948;53.250;10.412;2023-06-22T07:27:44;4.40;;;4.13;;
3865;SDS011;1948;53.250;10.412;2023-06-22T07:30:35;5.30;;;4.90;;
3865;SDS011;1948;53.250;10.412;2023-06-22T07:33:02;4.80;;;4.40;;
3865;SDS011;1948;53.250;10.412;2023-06-22T07:35:30;7.07;;;4.30;;
3865;SDS011;1948;53.250;10.412;2023-06-22T07:37:57;4.43;;;4.07;;
3865;SDS011;1948;53.250;10.412;2023-06-22T07:40:30;4.73;;;4.30;;
3865;SDS011;1948;53.250;10.412;2023-06-22T07:42:58;18.13;;;4.40;;
3865;SDS011;1948;53.250;10.412;2023-06-22T07:45:25;10.53;;;5.00;;
3865;SDS011;1948;53.250;10.412;2023-06-22T07:47:52;4.70;;;4.33;;
3865;SDS011;1948;53.250;10.412;2023-06-22T07:50:25;8.83;;;4.60;;
3865;SDS011;1948;53.250;10.412;2023-06-22T07:52:53;6.17;;;4.17;;
3865;SDS011;1948;53.250;10.412;2023-06-22T07:55:20;4.77;;;4.40;;
3865;SDS011;1948;53.250;10.412;2023-06-22T07:57:48;7.23;;;4.23;;
3865;SDS011;1948;53.250;10.412;2023-06-22T08:00:18;7.60;;;4.50;;
3865;SDS011;1948;53.250;10.412;2023-06-22T08:02:45;9.70;;;4.87;;
3865;SDS011;1948;53.250;10.412;2023-06-22T08:05:14;4.80;;;4.60;;
3865;SDS011;1948;53.250;10.412;2023-06-22T08:07:59;6.43;;;4.50;;
3865;SDS011;1948;53.250;10.412;2023-06-22T08:10:26;9.93;;;5.20;;
3865;SDS011;1948;53.250;10.412;2023-06-22T08:12:53;3.80;;;3.50;;
3865;SDS011;1948;53.250;10.412;2023-06-22T08:15:23;5.60;;;5.20;;
3865;SDS011;1948;53.250;10.412;2023-06-22T08:17:53;11.60;;;4.80;;
3865;SDS011;1948;53.250;10.412;2023-06-22T08:20:20;4.70;;;4.40;;
3865;SDS011;1948;53.250;10.412;2023-06-22T08:22:47;5.80;;;3.97;;
3865;SDS011;1948;53.250;10.412;2023-06-22T08:25:14;14.13;;;3.50;;
3865;SDS011;1948;53.250;10.412;2023-06-22T08:27:47;4.77;;;4.47;;
3865;SDS011;1948;53.250;10.412;2023-06-22T08:30:16;4.03;;;3.63;;
3865;SDS011;1948;53.250;10.412;2023-06-22T08:32:44;7.47;;;4.37;;
3865;SDS011;1948;53.250;10.412;2023-06-22T08:35:11;12.20;;;3.87;;
3865;SDS011;1948;53.250;10.412;2023-06-22T08:37:39;4.77;;;3.80;;
3865;SDS011;1948;53.250;10.412;2023-06-22T08:40:07;4.30;;;4.03;;
3865;SDS011;1948;53.250;10.412;2023-06-22T08:42:36;4.20;;;3.90;;
3865;SDS011;1948;53.250;10.412;2023-06-22T08:45:04;4.77;;;4.40;;
3865;SDS011;1948;53.250;10.412;2023-06-22T08:47:32;4.83;;;4.10;;
3865;SDS011;1948;53.250;10.412;2023-06-22T08:50:02;5.07;;;4.50;;
3865;SDS011;1948;53.250;10.412;2023-06-22T08:52:32;13.43;;;4.03;;
3865;SDS011;1948;53.250;10.412;2023-06-22T08:54:59;3.70;;;3.50;;
3865;SDS011;1948;53.250;10.412;2023-06-22T08:57:27;4.10;;;4.00;;
3865;SDS011;1948;53.250;10.412;2023-06-22T08:59:54;4.00;;;3.73;;
3865;SDS011;1948;53.250;10.412;2023-06-22T09:02:25;4.23;;;4.03;;
3865;SDS011;1948;53.250;10.412;2023-06-22T09:04:57;15.70;;;4.10;;
3865;SDS011;1948;53.250;10.412;2023-06-22T09:07:27;3.97;;;3.67;;
3865;SDS011;1948;53.250;10.412;2023-06-22T09:09:56;10.33;;;4.00;;
3865;SDS011;1948;53.250;10.412;2023-06-22T09:12:23;5.53;;;4.27;;
3865;SDS011;1948;53.250;10.412;2023-06-22T09:14:53;6.10;;;4.50;;
3865;SDS011;1948;53.250;10.412;2023-06-22T09:17:20;4.20;;;4.00;;
3865;SDS011;1948;53.250;10.412;2023-06-22T09:19:48;3.70;;;3.50;;
3865;SDS011;1948;53.250;10.412;2023-06-22T09:22:15;9.33;;;3.93;;
3865;SDS011;1948;53.250;10.412;2023-06-22T09:24:44;3.90;;;3.60;;
3865;SDS011;1948;53.250;10.412;2023-06-22T09:27:11;3.63;;;3.50;;
3865;SDS011;1948;53.250;10.412;2023-06-22T09:29:39;3.60;;;3.40;;
3865;SDS011;1948;53.250;10.412;2023-06-22T09:32:10;3.90;;;3.80;;
3865;SDS011;1948;53.250;10.412;2023-06-22T09:34:42;3.97;;;3.57;;
3865;SDS011;1948;53.250;10.412;2023-06-22T09:37:09;5.60;;;3.27;;
3865;SDS011;1948;53.250;10.412;2023-06-22T09:39:36;3.50;;;3.30;;
3865;SDS011;1948;53.250;10.412;2023-06-22T09:42:06;3.37;;;3.27;;
3865;SDS011;1948;53.250;10.412;2023-06-22T09:44:33;4.43;;;3.90;;
3865;SDS011;1948;53.250;10.412;2023-06-22T09:47:03;8.13;;;3.73;;
3865;SDS011;1948;53.250;10.412;2023-06-22T09:49:30;10.60;;;3.53;;
3865;SDS011;1948;53.250;10.412;2023-06-22T09:52:13;4.43;;;3.40;;
3865;SDS011;1948;53.250;10.412;2023-06-22T09:54:42;3.90;;;3.80;;
3865;SDS011;1948;53.250;10.412;2023-06-22T09:57:12;3.63;;;3.50;;
3865;SDS011;1948;53.250;10.412;2023-06-22T09:59:39;3.67;;;3.57;;
3865;SDS011;1948;53.250;10.412;2023-06-22T10:02:07;3.60;;;3.47;;
3865;SDS011;1948;53.250;10.412;2023-06-22T10:04:35;6.00;;;3.63;;
3865;SDS011;1948;53.250;10.412;2023-06-22T10:07:03;3.33;;;3.23;;
3865;SDS011;1948;53.250;10.412;2023-06-22T10:09:30;5.70;;;3.47;;
3865;SDS011;1948;53.250;10.412;2023-06-22T10:11:57;4.97;;;3.50;;
3865;SDS011;1948;53.250;10.412;2023-06-22T10:14:24;3.60;;;3.50;;
3865;SDS011;1948;53.250;10.412;2023-06-22T10:16:56;4.03;;;3.83;;
3865;SDS011;1948;53.250;10.412;2023-06-22T10:19:25;8.10;;;3.93;;
3865;SDS011;1948;53.250;10.412;2023-06-22T10:21:53;4.77;;;4.03;;
3865;SDS011;1948;53.250;10.412;2023-06-22T10:24:21;5.13;;;3.80;;
3865;SDS011;1948;53.250;10.412;2023-06-22T10:26:49;3.80;;;3.63;;
3865;SDS011;1948;53.250;10.412;2023-06-22T10:29:16;3.70;;;3.60;;
3865;SDS011;1948;53.250;10.412;2023-06-22T10:31:43;6.00;;;4.40;;
3865;SDS011;1948;53.250;10.412;2023-06-22T10:34:11;12.17;;;4.87;;
3865;SDS011;1948;53.250;10.412;2023-06-22T10:36:38;14.47;;;4.03;;
3865;SDS011;1948;53.250;10.412;2023-06-22T10:39:05;5.03;;;4.70;;
3865;SDS011;1948;53.250;10.412;2023-06-22T10:41:32;4.97;;;4.43;;
3865;SDS011;1948;53.250;10.412;2023-06-22T10:43:59;4.33;;;4.20;;
3865;SDS011;1948;53.250;10.412;2023-06-22T10:46:26;4.93;;;4.50;;
3865;SDS011;1948;53.250;10.412;2023-06-22T10:48:56;4.47;;;4.33;;
3865;SDS011;1948;53.250;10.412;2023-06-22T10:51:26;4.30;;;4.03;;
3865;SDS011;1948;53.250;10.412;2023-06-22T10:53:55;5.00;;;4.53;;
3865;SDS011;1948;53.250;10.412;2023-06-22T10:56:22;4.63;;;4.33;;
3865;SDS011;1948;53.250;10.412;2023-06-22T10:58:52;4.80;;;4.50;;
3865;SDS011;1948;53.250;10.412;2023-06-22T11:01:20;4.20;;;4.10;;
3865;SDS011;1948;53.250;10.412;2023-06-22T11:04:01;5.30;;;4.33;;
3865;SDS011;1948;53.250;10.412;2023-06-22T11:06:32;4.03;;;3.93;;
3865;SDS011;1948;53.250;10.412;2023-06-22T11:09:00;4.70;;;4.40;;
3865;SDS011;1948;53.250;10.412;2023-06-22T11:11:37;4.10;;;3.90;;
3865;SDS011;1948;53.250;10.412;2023-06-22T11:14:04;4.30;;;4.10;;
3865;SDS011;1948;53.250;10.412;2023-06-22T11:16:31;4.93;;;4.60;;
3865;SDS011;1948;53.250;10.412;2023-06-22T11:19:00;4.30;;;4.07;;
3865;SDS011;1948;53.250;10.412;2023-06-22T11:21:27;4.63;;;3.90;;
3865;SDS011;1948;53.250;10.412;2023-06-22T11:23:54;4.23;;;4.00;;
3865;SDS011;1948;53.250;10.412;2023-06-22T11:26:22;4.70;;;4.30;;
3865;SDS011;1948;53.250;10.412;2023-06-22T11:28:49;3.70;;;3.50;;
3865;SDS011;1948;53.250;10.412;2023-06-22T11:31:21;4.07;;;3.97;;
3865;SDS011;1948;53.250;10.412;2023-06-22T11:33:52;6.73;;;3.97;;
3865;SDS011;1948;53.250;10.412;2023-06-22T11:36:19;5.40;;;4.27;;
3865;SDS011;1948;53.250;10.412;2023-06-22T11:38:49;5.93;;;5.53;;
3865;SDS011;1948;53.250;10.412;2023-06-22T11:41:20;5.60;;;5.10;;
3865;SDS011;1948;53.250;10.412;2023-06-22T11:43:47;5.57;;;5.30;;
3865;SDS011;1948;53.250;10.412;2023-06-22T11:46:17;5.30;;;5.10;;
3865;SDS011;1948;53.250;10.412;2023-06-22T11:48:44;6.00;;;5.70;;
3865;SDS011;1948;53.250;10.412;2023-06-22T11:51:16;11.90;;;5.07;;
3865;SDS011;1948;53.250;10.412;2023-06-22T11:53:43;6.17;;;5.77;;
3865;SDS011;1948;53.250;10.412;2023-06-22T11:56:12;8.70;;;5.00;;
3865;SDS011;1948;53.250;10.412;2023-06-22T11:58:42;5.33;;;4.83;;
3865;SDS011;1948;53.250;10.412;2023-06-22T12:01:09;5.00;;;4.70;;
3865;SDS011;1948;53.250;10.412;2023-06-22T12:03:38;6.33;;;4.73;;
3865;SDS011;1948;53.250;10.412;2023-06-22T12:06:05;5.10;;;4.60;;
3865;SDS011;1948;53.250;10.412;2023-06-22T12:08:32;4.60;;;4.40;;
3865;SDS011;1948;53.250;10.412;2023-06-22T12:10:59;8.47;;;4.90;;
3865;SDS011;1948;53.250;10.412;2023-06-22T12:13:29;4.37;;;4.27;;
3865;SDS011;1948;53.250;10.412;2023-06-22T12:15:58;5.20;;;4.90;;
3865;SDS011;1948;53.250;10.412;2023-06-22T12:18:25;5.33;;;5.20;;
3865;SDS011;1948;53.250;10.412;2023-06-22T12:20:52;18.30;;;5.30;;
3865;SDS011;1948;53.250;10.412;2023-06-22T12:23:19;6.00;;;5.60;;
3865;SDS011;1948;53.250;10.412;2023-06-22T12:25:46;6.30;;;5.77;;
3865;SDS011;1948;53.250;10.412;2023-06-22T12:28:13;6.87;;;5.30;;
3865;SDS011;1948;53.250;10.412;2023-06-22T12:30:40;6.13;;;5.83;;
3865;SDS011;1948;53.250;10.412;2023-06-22T12:33:07;5.90;;;5.60;;
3865;SDS011;1948;53.250;10.412;2023-06-22T12:35:34;6.87;;;6.40;;
3865;SDS011;1948;53.250;10.412;2023-06-22T12:38:01;6.00;;;5.23;;
3865;SDS011;1948;53.250;10.412;2023-06-22T12:40:29;6.90;;;6.37;;
3865;SDS011;1948;53.250;10.412;2023-06-22T12:42:57;6.20;;;5.90;;
3865;SDS011;1948;53.250;10.412;2023-06-22T12:45:24;5.77;;;5.57;;
3865;SDS011;1948;53.250;10.412;2023-06-22T12:47:55;6.03;;;5.77;;
3865;SDS011;1948;53.250;10.412;2023-06-22T12:50:22;5.83;;;5.37;;
3865;SDS011;1948;53.250;10.412;2023-06-22T12:52:49;5.37;;;4.97;;
3865;SDS011;1948;53.250;10.412;2023-06-22T12:55:18;5.87;;;5.47;;
3865;SDS011;1948;53.250;10.412;2023-06-22T12:57:50;5.60;;;5.20;;
3865;SDS011;1948;53.250;10.412;2023-06-22T13:00:19;5.07;;;4.77;;
3865;SDS011;1948;53.250;10.412;2023-06-22T13:02:49;7.03;;;6.27;;
3865;SDS011;1948;53.250;10.412;2023-06-22T13:05:16;5.20;;;4.67;;
3865;SDS011;1948;53.250;10.412;2023-06-22T13:07:48;15.90;;;5.43;;
3865;SDS011;1948;53.250;10.412;2023-06-22T13:10:15;5.30;;;5.00;;
3865;SDS011;1948;53.250;10.412;2023-06-22T13:12:45;15.67;;;5.03;;
3865;SDS011;1948;53.250;10.412;2023-06-22T13:15:12;5.93;;;5.50;;
3865;SDS011;1948;53.250;10.412;2023-06-22T13:17:39;5.37;;;5.03;;
3865;SDS011;1948;53.250;10.412;2023-06-22T13:20:06;5.60;;;5.30;;
3865;SDS011;1948;53.250;10.412;2023-06-22T13:22:36;5.47;;;5.17;;
3865;SDS011;1948;53.250;10.412;2023-06-22T13:25:07;6.50;;;5.83;;
3865;SDS011;1948;53.250;10.412;2023-06-22T13:27:41;7.63;;;5.37;;
3865;SDS011;1948;53.250;10.412;2023-06-22T13:30:14;5.70;;;5.40;;
3865;SDS011;1948;53.250;10.412;2023-06-22T13:32:41;5.93;;;5.70;;
3865;SDS011;1948;53.250;10.412;2023-06-22T13:35:10;7.43;;;5.97;;
3865;SDS011;1948;53.250;10.412;2023-06-22T13:37:40;8.00;;;5.80;;
3865;SDS011;1948;53.250;10.412;2023-06-22T13:40:09;5.40;;;5.20;;
3865;SDS011;1948;53.250;10.412;2023-06-22T13:42:36;6.50;;;5.70;;
3865;SDS011;1948;53.250;10.412;2023-06-22T13:45:07;6.17;;;5.70;;
3865;SDS011;1948;53.250;10.412;2023-06-22T13:47:35;6.60;;;6.20;;
3865;SDS011;1948;53.250;10.412;2023-06-22T13:50:02;5.87;;;5.33;;
3865;SDS011;1948;53.250;10.412;2023-06-22T13:52:29;6.93;;;6.40;;
3865;SDS011;1948;53.250;10.412;2023-06-22T13:54:56;10.63;;;6.37;;
3865;SDS011;1948;53.250;10.412;2023-06-22T13:57:23;5.90;;;5.67;;
3865;SDS011;1948;53.250;10.412;2023-06-22T13:59:50;6.20;;;5.83;;
3865;SDS011;1948;53.250;10.412;2023-06-22T14:02:17;6.83;;;5.90;;
3865;SDS011;1948;53.250;10.412;2023-06-22T14:04:47;6.60;;;6.10;;
3865;SDS011;1948;53.250;10.412;2023-06-22T14:07:14;5.70;;;5.50;;
3865;SDS011;1948;53.250;10.412;2023-06-22T14:09:41;8.07;;;7.37;;
3865;SDS011;1948;53.250;10.412;2023-06-22T14:12:11;6.97;;;6.37;;
3865;SDS011;1948;53.250;10.412;2023-06-22T14:14:38;7.30;;;6.67;;
3865;SDS011;1948;53.250;10.412;2023-06-22T14:17:05;6.50;;;5.90;;
3865;SDS011;1948;53.250;10.412;2023-06-22T14:19:32;6.67;;;6.30;;
3865;SDS011;1948;53.250;10.412;2023-06-22T14:22:02;6.60;;;6.20;;
3865;SDS011;1948;53.250;10.412;2023-06-22T14:24:30;6.30;;;5.67;;
3865;SDS011;1948;53.250;10.412;2023-06-22T14:26:57;6.33;;;5.90;;
3865;SDS011;1948;53.250;10.412;2023-06-22T14:29:31;6.40;;;6.00;;
3865;SDS011;1948;53.250;10.412;2023-06-22T14:32:01;6.37;;;5.97;;
3865;SDS011;1948;53.250;10.412;2023-06-22T14:34:28;6.53;;;5.50;;
3865;SDS011;1948;53.250;10.412;2023-06-22T14:36:57;7.23;;;5.60;;
3865;SDS011;1948;53.250;10.412;2023-06-22T14:39:27;5.80;;;5.43;;
3865;SDS011;1948;53.250;10.412;2023-06-22T14:41:55;6.47;;;5.97;;
3865;SDS011;1948;53.250;10.412;2023-06-22T14:44:22;6.77;;;6.20;;
3865;SDS011;1948;53.250;10.412;2023-06-22T14:46:49;6.20;;;5.93;;
3865;SDS011;1948;53.250;10.412;2023-06-22T14:49:16;6.53;;;6.23;;
3865;SDS011;1948;53.250;10.412;2023-06-22T14:51:43;7.13;;;6.47;;
3865;SDS011;1948;53.250;10.412;2023-06-22T14:54:12;6.83;;;6.37;;
3865;SDS011;1948;53.250;10.412;2023-06-22T14:56:40;7.40;;;6.90;;
3865;SDS011;1948;53.250;10.412;2023-06-22T14:59:07;7.27;;;6.67;;
3865;SDS011;1948;53.250;10.412;2023-06-22T15:01:34;7.70;;;6.93;;
3865;SDS011;1948;53.250;10.412;2023-06-22T15:04:06;8.10;;;7.33;;
3865;SDS011;1948;53.250;10.412;2023-06-22T15:06:33;13.33;;;6.83;;
3865;SDS011;1948;53.250;10.412;2023-06-22T15:09:02;7.07;;;6.47;;
3865;SDS011;1948;53.250;10.412;2023-06-22T15:11:29;11.93;;;6.60;;
3865;SDS011;1948;53.250;10.412;2023-06-22T15:13:59;6.63;;;6.33;;
3865;SDS011;1948;53.250;10.412;2023-06-22T15:16:26;6.30;;;5.80;;
3865;SDS011;1948;53.250;10.412;2023-06-22T15:18:58;7.47;;;6.70;;